« Back
NWS Peachtree City, Ga » Text Product » CSG Terminal Aerodrome Forecast


Printer-friendly Version
Current Version              Previous Versions:   1  2  3  4  5  6  7  8  9  

Terminal Aerodrome Forecast

849
FTUS42 KFFC 170500
TAFCSG
TAF
KCSG 170535Z 1706/1806 29003KT P6SM SCT110
     FM170900 31003KT 5SM BR FEW040
     FM171600 33007KT P6SM SCT045
     FM180100 32003KT P6SM SKC=

USA.gov is the U.S. government's official web portal to all federal, state and local government web resources and services.